Birnamwood, Wisconsin
Current Conditions -  °F | °C
As of 1:55 PM on Monday 24 Nov 2014 (Local Time) from KAIG Reporting Station
Light Snow Light Snow  
Wind Chill: 20°   Ceiling: 700
Heat Index: 31°   Visibility: 0.5mi
Dew Point: 31°   Wind: 17mph
Humidity: 99%   Direction: 350°N
Pressure: 29.17"   Gusts: 22mph
Location:  44.93°N, 89.21°W
Report Text: KAIG 241955Z AUTO 35015G19KT 1/2SM -SN OVC007 00/M01 A2917 RMK AO2 P0003 T10041006
Loading
Personal Weather Stations






























Interactive Weather Map New forecast layout! Learn more

10-Day Weather Forecast

Advertisements
Track Severe Weather on mobile